sensor_id;sensor_type;location;lat;lon;timestamp;P1;durP1;ratioP1;P2;durP2;ratioP2
75297;SDS011;63896;45.990;18.688;2023-07-08T00:02:54;13.83;;;5.83;;
75297;SDS011;63896;45.990;18.688;2023-07-08T00:05:57;9.23;;;5.25;;
75297;SDS011;63896;45.990;18.688;2023-07-08T00:09:00;10.35;;;5.60;;
75297;SDS011;63896;45.990;18.688;2023-07-08T00:12:07;9.35;;;5.60;;
75297;SDS011;63896;45.990;18.688;2023-07-08T00:15:12;10.98;;;5.95;;
75297;SDS011;63896;45.990;18.688;2023-07-08T00:18:16;9.63;;;4.73;;
75297;SDS011;63896;45.990;18.688;2023-07-08T00:21:20;11.38;;;5.63;;
75297;SDS011;63896;45.990;18.688;2023-07-08T00:24:22;9.40;;;5.28;;
75297;SDS011;63896;45.990;18.688;2023-07-08T00:27:25;11.65;;;5.75;;
75297;SDS011;63896;45.990;18.688;2023-07-08T00:30:29;9.23;;;6.25;;
75297;SDS011;63896;45.990;18.688;2023-07-08T00:33:33;11.10;;;5.93;;
75297;SDS011;63896;45.990;18.688;2023-07-08T00:36:35;10.63;;;6.00;;
75297;SDS011;63896;45.990;18.688;2023-07-08T00:39:39;8.77;;;5.82;;
75297;SDS011;63896;45.990;18.688;2023-07-08T00:42:43;10.68;;;5.85;;
75297;SDS011;63896;45.990;18.688;2023-07-08T00:45:48;12.38;;;6.32;;
75297;SDS011;63896;45.990;18.688;2023-07-08T00:52:27;11.10;;;6.10;;
75297;SDS011;63896;45.990;18.688;2023-07-08T00:55:31;8.15;;;5.72;;
75297;SDS011;63896;45.990;18.688;2023-07-08T00:58:35;9.70;;;6.32;;
75297;SDS011;63896;45.990;18.688;2023-07-08T01:01:42;10.50;;;6.13;;
75297;SDS011;63896;45.990;18.688;2023-07-08T01:05:04;9.63;;;6.17;;
75297;SDS011;63896;45.990;18.688;2023-07-08T01:08:20;10.10;;;6.50;;
75297;SDS011;63896;45.990;18.688;2023-07-08T01:11:31;14.20;;;6.95;;
75297;SDS011;63896;45.990;18.688;2023-07-08T01:14:37;8.45;;;5.93;;
75297;SDS011;63896;45.990;18.688;2023-07-08T01:17:44;12.25;;;6.63;;
75297;SDS011;63896;45.990;18.688;2023-07-08T01:20:48;9.97;;;6.30;;
75297;SDS011;63896;45.990;18.688;2023-07-08T01:23:51;10.88;;;6.25;;
75297;SDS011;63896;45.990;18.688;2023-07-08T01:26:53;12.57;;;5.57;;
75297;SDS011;63896;45.990;18.688;2023-07-08T01:29:57;9.65;;;5.88;;
75297;SDS011;63896;45.990;18.688;2023-07-08T01:33:03;8.30;;;5.82;;
75297;SDS011;63896;45.990;18.688;2023-07-08T01:36:10;11.63;;;6.30;;
75297;SDS011;63896;45.990;18.688;2023-07-08T01:39:15;7.88;;;5.80;;
75297;SDS011;63896;45.990;18.688;2023-07-08T01:42:22;8.98;;;5.57;;
75297;SDS011;63896;45.990;18.688;2023-07-08T01:45:26;10.25;;;6.50;;
75297;SDS011;63896;45.990;18.688;2023-07-08T01:48:33;9.05;;;6.00;;
75297;SDS011;63896;45.990;18.688;2023-07-08T01:51:40;11.30;;;6.00;;
75297;SDS011;63896;45.990;18.688;2023-07-08T01:54:44;12.00;;;5.85;;
75297;SDS011;63896;45.990;18.688;2023-07-08T01:57:47;15.40;;;5.32;;
75297;SDS011;63896;45.990;18.688;2023-07-08T02:00:53;9.10;;;5.60;;
75297;SDS011;63896;45.990;18.688;2023-07-08T02:03:58;9.57;;;5.43;;
75297;SDS011;63896;45.990;18.688;2023-07-08T02:07:00;9.40;;;4.93;;
75297;SDS011;63896;45.990;18.688;2023-07-08T02:10:05;9.93;;;5.75;;
75297;SDS011;63896;45.990;18.688;2023-07-08T02:13:08;8.38;;;5.22;;
75297;SDS011;63896;45.990;18.688;2023-07-08T02:16:11;9.95;;;5.03;;
75297;SDS011;63896;45.990;18.688;2023-07-08T02:19:14;9.73;;;5.20;;
75297;SDS011;63896;45.990;18.688;2023-07-08T02:22:17;9.70;;;5.33;;
75297;SDS011;63896;45.990;18.688;2023-07-08T02:25:19;11.93;;;5.70;;
75297;SDS011;63896;45.990;18.688;2023-07-08T02:28:22;14.82;;;5.03;;
75297;SDS011;63896;45.990;18.688;2023-07-08T02:31:25;10.25;;;4.93;;
75297;SDS011;63896;45.990;18.688;2023-07-08T02:34:29;12.80;;;5.00;;
75297;SDS011;63896;45.990;18.688;2023-07-08T02:37:32;9.33;;;4.83;;
75297;SDS011;63896;45.990;18.688;2023-07-08T02:40:34;6.13;;;4.60;;
75297;SDS011;63896;45.990;18.688;2023-07-08T02:43:38;7.05;;;4.85;;
75297;SDS011;63896;45.990;18.688;2023-07-08T02:46:41;8.43;;;4.95;;
75297;SDS011;63896;45.990;18.688;2023-07-08T02:49:44;12.60;;;5.80;;
75297;SDS011;63896;45.990;18.688;2023-07-08T02:52:48;10.70;;;5.63;;
75297;SDS011;63896;45.990;18.688;2023-07-08T02:55:50;10.23;;;5.00;;
75297;SDS011;63896;45.990;18.688;2023-07-08T02:58:53;8.98;;;4.90;;
75297;SDS011;63896;45.990;18.688;2023-07-08T03:01:56;11.15;;;5.45;;
75297;SDS011;63896;45.990;18.688;2023-07-08T03:04:59;10.23;;;5.38;;
75297;SDS011;63896;45.990;18.688;2023-07-08T03:08:03;9.87;;;4.83;;
75297;SDS011;63896;45.990;18.688;2023-07-08T03:11:07;9.07;;;4.80;;
75297;SDS011;63896;45.990;18.688;2023-07-08T03:14:10;9.25;;;5.25;;
75297;SDS011;63896;45.990;18.688;2023-07-08T03:17:13;7.72;;;4.63;;
75297;SDS011;63896;45.990;18.688;2023-07-08T03:20:16;9.27;;;5.72;;
75297;SDS011;63896;45.990;18.688;2023-07-08T03:23:19;11.87;;;5.33;;
75297;SDS011;63896;45.990;18.688;2023-07-08T03:26:23;8.25;;;4.90;;
75297;SDS011;63896;45.990;18.688;2023-07-08T03:29:32;9.13;;;5.28;;
75297;SDS011;63896;45.990;18.688;2023-07-08T03:32:37;10.32;;;5.60;;
75297;SDS011;63896;45.990;18.688;2023-07-08T03:35:40;12.88;;;5.50;;
75297;SDS011;63896;45.990;18.688;2023-07-08T03:38:42;11.50;;;5.57;;
75297;SDS011;63896;45.990;18.688;2023-07-08T03:41:47;9.02;;;4.97;;
75297;SDS011;63896;45.990;18.688;2023-07-08T03:44:51;9.52;;;5.65;;
75297;SDS011;63896;45.990;18.688;2023-07-08T03:47:56;8.55;;;5.63;;
75297;SDS011;63896;45.990;18.688;2023-07-08T03:50:59;10.18;;;5.22;;
75297;SDS011;63896;45.990;18.688;2023-07-08T03:54:03;8.33;;;5.63;;
75297;SDS011;63896;45.990;18.688;2023-07-08T03:57:10;9.27;;;5.53;;
75297;SDS011;63896;45.990;18.688;2023-07-08T04:00:13;12.95;;;5.35;;
75297;SDS011;63896;45.990;18.688;2023-07-08T04:03:18;11.52;;;5.18;;
75297;SDS011;63896;45.990;18.688;2023-07-08T04:06:22;9.40;;;4.78;;
75297;SDS011;63896;45.990;18.688;2023-07-08T04:09:25;8.83;;;5.13;;
75297;SDS011;63896;45.990;18.688;2023-07-08T04:12:28;15.55;;;5.22;;
75297;SDS011;63896;45.990;18.688;2023-07-08T04:15:30;7.50;;;4.78;;
75297;SDS011;63896;45.990;18.688;2023-07-08T04:18:33;10.75;;;5.15;;
75297;SDS011;63896;45.990;18.688;2023-07-08T04:21:36;9.02;;;5.15;;
75297;SDS011;63896;45.990;18.688;2023-07-08T04:24:39;7.23;;;4.87;;
75297;SDS011;63896;45.990;18.688;2023-07-08T04:27:42;8.25;;;4.47;;
75297;SDS011;63896;45.990;18.688;2023-07-08T04:30:45;9.60;;;5.07;;
75297;SDS011;63896;45.990;18.688;2023-07-08T04:33:48;9.98;;;5.30;;
75297;SDS011;63896;45.990;18.688;2023-07-08T04:36:51;9.65;;;5.28;;
75297;SDS011;63896;45.990;18.688;2023-07-08T04:39:55;8.57;;;5.20;;
75297;SDS011;63896;45.990;18.688;2023-07-08T04:42:58;10.93;;;5.20;;
75297;SDS011;63896;45.990;18.688;2023-07-08T04:46:02;12.10;;;4.93;;
75297;SDS011;63896;45.990;18.688;2023-07-08T04:49:07;7.57;;;4.50;;
75297;SDS011;63896;45.990;18.688;2023-07-08T04:52:12;8.13;;;4.95;;
75297;SDS011;63896;45.990;18.688;2023-07-08T04:55:15;10.30;;;5.30;;
75297;SDS011;63896;45.990;18.688;2023-07-08T04:58:18;8.02;;;4.90;;
75297;SDS011;63896;45.990;18.688;2023-07-08T05:01:21;6.90;;;5.03;;
75297;SDS011;63896;45.990;18.688;2023-07-08T05:04:24;10.00;;;4.78;;
75297;SDS011;63896;45.990;18.688;2023-07-08T05:07:27;11.75;;;6.22;;
75297;SDS011;63896;45.990;18.688;2023-07-08T05:10:29;8.47;;;5.90;;
75297;SDS011;63896;45.990;18.688;2023-07-08T05:13:32;10.40;;;6.38;;
75297;SDS011;63896;45.990;18.688;2023-07-08T05:16:35;9.73;;;5.80;;
75297;SDS011;63896;45.990;18.688;2023-07-08T05:19:38;11.15;;;6.00;;
75297;SDS011;63896;45.990;18.688;2023-07-08T05:22:44;10.88;;;5.70;;
75297;SDS011;63896;45.990;18.688;2023-07-08T05:25:47;10.87;;;5.63;;
75297;SDS011;63896;45.990;18.688;2023-07-08T05:28:50;8.25;;;5.25;;
75297;SDS011;63896;45.990;18.688;2023-07-08T05:31:53;9.02;;;5.75;;
75297;SDS011;63896;45.990;18.688;2023-07-08T05:34:56;8.10;;;5.32;;
75297;SDS011;63896;45.990;18.688;2023-07-08T05:38:20;10.82;;;5.55;;
75297;SDS011;63896;45.990;18.688;2023-07-08T05:41:38;6.73;;;5.07;;
75297;SDS011;63896;45.990;18.688;2023-07-08T05:44:41;7.10;;;4.95;;
75297;SDS011;63896;45.990;18.688;2023-07-08T05:47:44;11.02;;;5.03;;
75297;SDS011;63896;45.990;18.688;2023-07-08T05:50:47;8.52;;;5.25;;
75297;SDS011;63896;45.990;18.688;2023-07-08T05:54:24;9.02;;;4.90;;
75297;SDS011;63896;45.990;18.688;2023-07-08T05:57:28;7.87;;;4.70;;
75297;SDS011;63896;45.990;18.688;2023-07-08T06:00:31;6.78;;;4.28;;
75297;SDS011;63896;45.990;18.688;2023-07-08T06:03:41;8.00;;;4.55;;
75297;SDS011;63896;45.990;18.688;2023-07-08T06:07:02;6.07;;;4.55;;
75297;SDS011;63896;45.990;18.688;2023-07-08T06:10:06;6.30;;;4.57;;
75297;SDS011;63896;45.990;18.688;2023-07-08T06:13:09;7.07;;;4.40;;
75297;SDS011;63896;45.990;18.688;2023-07-08T06:16:12;6.53;;;4.70;;
75297;SDS011;63896;45.990;18.688;2023-07-08T06:19:19;4.75;;;3.83;;
75297;SDS011;63896;45.990;18.688;2023-07-08T06:22:22;12.65;;;4.40;;
75297;SDS011;63896;45.990;18.688;2023-07-08T06:25:45;11.85;;;4.32;;
75297;SDS011;63896;45.990;18.688;2023-07-08T06:28:47;5.90;;;4.47;;
75297;SDS011;63896;45.990;18.688;2023-07-08T06:31:53;6.45;;;4.32;;
75297;SDS011;63896;45.990;18.688;2023-07-08T06:34:59;10.25;;;4.63;;
75297;SDS011;63896;45.990;18.688;2023-07-08T06:38:02;5.90;;;4.20;;
75297;SDS011;63896;45.990;18.688;2023-07-08T06:41:05;6.75;;;3.55;;
75297;SDS011;63896;45.990;18.688;2023-07-08T06:44:08;8.17;;;4.30;;
75297;SDS011;63896;45.990;18.688;2023-07-08T06:47:22;6.85;;;3.80;;
75297;SDS011;63896;45.990;18.688;2023-07-08T06:50:25;10.40;;;3.67;;
75297;SDS011;63896;45.990;18.688;2023-07-08T06:53:28;4.85;;;3.28;;
75297;SDS011;63896;45.990;18.688;2023-07-08T06:56:31;4.07;;;2.80;;
75297;SDS011;63896;45.990;18.688;2023-07-08T07:03:42;5.28;;;3.63;;
75297;SDS011;63896;45.990;18.688;2023-07-08T07:06:46;4.07;;;2.97;;
75297;SDS011;63896;45.990;18.688;2023-07-08T07:09:48;3.92;;;3.20;;
75297;SDS011;63896;45.990;18.688;2023-07-08T07:12:52;5.70;;;3.05;;
75297;SDS011;63896;45.990;18.688;2023-07-08T07:15:55;5.77;;;2.90;;
75297;SDS011;63896;45.990;18.688;2023-07-08T07:18:57;4.88;;;3.05;;
75297;SDS011;63896;45.990;18.688;2023-07-08T07:22:00;4.47;;;2.95;;
75297;SDS011;63896;45.990;18.688;2023-07-08T07:25:03;4.25;;;2.88;;
75297;SDS011;63896;45.990;18.688;2023-07-08T07:28:07;6.60;;;2.70;;
75297;SDS011;63896;45.990;18.688;2023-07-08T07:31:10;5.53;;;2.73;;
75297;SDS011;63896;45.990;18.688;2023-07-08T07:34:14;4.05;;;2.70;;
75297;SDS011;63896;45.990;18.688;2023-07-08T07:37:18;3.80;;;2.50;;
75297;SDS011;63896;45.990;18.688;2023-07-08T07:40:22;4.43;;;2.53;;
75297;SDS011;63896;45.990;18.688;2023-07-08T07:43:25;3.47;;;2.65;;
75297;SDS011;63896;45.990;18.688;2023-07-08T07:46:29;3.40;;;2.50;;
75297;SDS011;63896;45.990;18.688;2023-07-08T07:49:32;4.20;;;2.58;;
75297;SDS011;63896;45.990;18.688;2023-07-08T07:52:35;4.32;;;2.40;;
75297;SDS011;63896;45.990;18.688;2023-07-08T07:55:38;3.25;;;2.53;;
75297;SDS011;63896;45.990;18.688;2023-07-08T07:58:41;3.45;;;2.50;;
75297;SDS011;63896;45.990;18.688;2023-07-08T08:01:43;3.33;;;2.37;;
75297;SDS011;63896;45.990;18.688;2023-07-08T08:04:46;7.15;;;2.45;;
75297;SDS011;63896;45.990;18.688;2023-07-08T08:07:49;5.25;;;2.65;;
75297;SDS011;63896;45.990;18.688;2023-07-08T08:10:52;5.45;;;2.35;;
75297;SDS011;63896;45.990;18.688;2023-07-08T08:13:55;2.75;;;2.38;;
75297;SDS011;63896;45.990;18.688;2023-07-08T08:16:58;4.20;;;2.47;;
75297;SDS011;63896;45.990;18.688;2023-07-08T08:20:01;3.20;;;2.50;;
75297;SDS011;63896;45.990;18.688;2023-07-08T08:23:04;8.40;;;2.80;;
75297;SDS011;63896;45.990;18.688;2023-07-08T08:26:09;2.47;;;2.28;;
75297;SDS011;63896;45.990;18.688;2023-07-08T08:29:11;6.43;;;2.75;;
75297;SDS011;63896;45.990;18.688;2023-07-08T08:32:14;7.53;;;2.50;;
75297;SDS011;63896;45.990;18.688;2023-07-08T08:35:17;4.20;;;2.50;;
75297;SDS011;63896;45.990;18.688;2023-07-08T08:38:20;3.97;;;2.30;;
75297;SDS011;63896;45.990;18.688;2023-07-08T08:41:30;4.30;;;2.65;;
75297;SDS011;63896;45.990;18.688;2023-07-08T08:44:34;2.72;;;2.20;;
75297;SDS011;63896;45.990;18.688;2023-07-08T08:47:39;6.37;;;2.47;;
75297;SDS011;63896;45.990;18.688;2023-07-08T08:50:58;4.57;;;2.30;;
75297;SDS011;63896;45.990;18.688;2023-07-08T08:54:07;3.92;;;2.30;;
75297;SDS011;63896;45.990;18.688;2023-07-08T08:57:31;5.72;;;2.40;;
75297;SDS011;63896;45.990;18.688;2023-07-08T09:01:02;2.85;;;2.50;;
75297;SDS011;63896;45.990;18.688;2023-07-08T09:04:15;4.53;;;2.70;;
75297;SDS011;63896;45.990;18.688;2023-07-08T09:11:04;4.07;;;2.65;;
75297;SDS011;63896;45.990;18.688;2023-07-08T09:14:27;5.50;;;2.83;;
75297;SDS011;63896;45.990;18.688;2023-07-08T09:17:32;3.53;;;2.55;;
75297;SDS011;63896;45.990;18.688;2023-07-08T09:20:39;5.77;;;2.70;;
75297;SDS011;63896;45.990;18.688;2023-07-08T09:23:43;9.68;;;2.83;;
75297;SDS011;63896;45.990;18.688;2023-07-08T09:26:50;3.60;;;2.97;;
75297;SDS011;63896;45.990;18.688;2023-07-08T09:29:55;4.63;;;2.80;;
75297;SDS011;63896;45.990;18.688;2023-07-08T09:33:02;7.65;;;2.60;;
75297;SDS011;63896;45.990;18.688;2023-07-08T09:36:15;3.17;;;2.40;;
75297;SDS011;63896;45.990;18.688;2023-07-08T09:39:20;3.88;;;2.50;;
75297;SDS011;63896;45.990;18.688;2023-07-08T09:42:25;4.10;;;2.70;;
75297;SDS011;63896;45.990;18.688;2023-07-08T09:45:40;4.30;;;2.80;;
75297;SDS011;63896;45.990;18.688;2023-07-08T09:48:45;4.72;;;3.10;;
75297;SDS011;63896;45.990;18.688;2023-07-08T09:51:47;4.07;;;2.70;;
75297;SDS011;63896;45.990;18.688;2023-07-08T09:54:52;10.50;;;3.13;;
75297;SDS011;63896;45.990;18.688;2023-07-08T09:57:55;7.20;;;2.85;;
75297;SDS011;63896;45.990;18.688;2023-07-08T10:01:05;5.80;;;2.70;;
75297;SDS011;63896;45.990;18.688;2023-07-08T10:04:13;4.32;;;2.55;;
75297;SDS011;63896;45.990;18.688;2023-07-08T10:07:16;8.33;;;2.70;;
75297;SDS011;63896;45.990;18.688;2023-07-08T10:10:22;4.05;;;2.90;;
75297;SDS011;63896;45.990;18.688;2023-07-08T10:16:42;5.20;;;2.90;;
75297;SDS011;63896;45.990;18.688;2023-07-08T10:19:45;5.85;;;2.90;;
75297;SDS011;63896;45.990;18.688;2023-07-08T10:23:02;5.93;;;2.70;;
75297;SDS011;63896;45.990;18.688;2023-07-08T10:26:26;5.85;;;3.10;;
75297;SDS011;63896;45.990;18.688;2023-07-08T10:33:18;7.13;;;2.70;;
75297;SDS011;63896;45.990;18.688;2023-07-08T10:43:59;4.20;;;3.10;;
75297;SDS011;63896;45.990;18.688;2023-07-08T10:50:41;11.95;;;3.22;;
75297;SDS011;63896;45.990;18.688;2023-07-08T10:53:54;4.43;;;3.22;;
75297;SDS011;63896;45.990;18.688;2023-07-08T10:57:25;4.83;;;2.83;;
75297;SDS011;63896;45.990;18.688;2023-07-08T11:07:24;3.55;;;2.63;;
75297;SDS011;63896;45.990;18.688;2023-07-08T11:10:36;4.90;;;2.75;;
75297;SDS011;63896;45.990;18.688;2023-07-08T11:13:52;5.37;;;3.07;;
75297;SDS011;63896;45.990;18.688;2023-07-08T11:17:14;3.53;;;2.80;;
75297;SDS011;63896;45.990;18.688;2023-07-08T11:20:25;4.93;;;2.60;;
75297;SDS011;63896;45.990;18.688;2023-07-08T11:30:29;6.37;;;2.83;;
75297;SDS011;63896;45.990;18.688;2023-07-08T11:33:34;3.17;;;2.55;;
75297;SDS011;63896;45.990;18.688;2023-07-08T11:36:37;5.25;;;2.55;;
75297;SDS011;63896;45.990;18.688;2023-07-08T11:39:43;3.35;;;2.80;;
75297;SDS011;63896;45.990;18.688;2023-07-08T11:42:50;5.22;;;2.80;;
75297;SDS011;63896;45.990;18.688;2023-07-08T11:46:03;3.70;;;2.90;;
75297;SDS011;63896;45.990;18.688;2023-07-08T11:49:12;3.65;;;3.10;;
75297;SDS011;63896;45.990;18.688;2023-07-08T11:52:18;3.55;;;2.70;;
75297;SDS011;63896;45.990;18.688;2023-07-08T11:56:18;3.90;;;3.00;;
75297;SDS011;63896;45.990;18.688;2023-07-08T11:59:08;6.88;;;2.95;;
75297;SDS011;63896;45.990;18.688;2023-07-08T12:02:18;3.67;;;2.67;;
75297;SDS011;63896;45.990;18.688;2023-07-08T12:05:29;6.03;;;2.65;;
75297;SDS011;63896;45.990;18.688;2023-07-08T12:08:36;3.45;;;2.75;;
75297;SDS011;63896;45.990;18.688;2023-07-08T12:11:44;4.65;;;3.00;;
75297;SDS011;63896;45.990;18.688;2023-07-08T12:14:50;3.28;;;2.97;;
75297;SDS011;63896;45.990;18.688;2023-07-08T12:18:19;3.60;;;2.73;;
75297;SDS011;63896;45.990;18.688;2023-07-08T12:21:23;10.27;;;3.15;;
75297;SDS011;63896;45.990;18.688;2023-07-08T12:24:28;4.35;;;2.70;;
75297;SDS011;63896;45.990;18.688;2023-07-08T12:27:31;4.70;;;2.70;;
75297;SDS011;63896;45.990;18.688;2023-07-08T12:30:34;4.93;;;2.92;;
75297;SDS011;63896;45.990;18.688;2023-07-08T12:33:37;4.27;;;2.87;;
75297;SDS011;63896;45.990;18.688;2023-07-08T12:36:43;3.88;;;2.35;;
75297;SDS011;63896;45.990;18.688;2023-07-08T12:39:55;4.78;;;2.60;;
75297;SDS011;63896;45.990;18.688;2023-07-08T12:42:59;5.00;;;3.03;;
75297;SDS011;63896;45.990;18.688;2023-07-08T12:46:05;5.32;;;2.92;;
75297;SDS011;63896;45.990;18.688;2023-07-08T12:49:11;6.23;;;2.80;;
75297;SDS011;63896;45.990;18.688;2023-07-08T12:52:23;3.95;;;2.80;;
75297;SDS011;63896;45.990;18.688;2023-07-08T12:55:26;4.32;;;2.83;;
75297;SDS011;63896;45.990;18.688;2023-07-08T12:58:30;5.15;;;2.50;;
75297;SDS011;63896;45.990;18.688;2023-07-08T13:01:36;8.48;;;2.65;;
75297;SDS011;63896;45.990;18.688;2023-07-08T13:04:40;4.90;;;2.70;;
75297;SDS011;63896;45.990;18.688;2023-07-08T13:07:44;5.97;;;2.88;;
75297;SDS011;63896;45.990;18.688;2023-07-08T13:10:47;4.28;;;2.60;;
75297;SDS011;63896;45.990;18.688;2023-07-08T13:13:54;7.35;;;2.90;;
75297;SDS011;63896;45.990;18.688;2023-07-08T13:17:00;3.97;;;2.70;;
75297;SDS011;63896;45.990;18.688;2023-07-08T13:20:04;6.43;;;2.70;;
75297;SDS011;63896;45.990;18.688;2023-07-08T13:23:08;6.22;;;3.10;;
75297;SDS011;63896;45.990;18.688;2023-07-08T13:26:16;4.20;;;2.70;;
75297;SDS011;63896;45.990;18.688;2023-07-08T13:29:22;5.32;;;2.67;;
75297;SDS011;63896;45.990;18.688;2023-07-08T13:32:30;4.57;;;2.65;;
75297;SDS011;63896;45.990;18.688;2023-07-08T13:35:35;5.57;;;2.77;;
75297;SDS011;63896;45.990;18.688;2023-07-08T13:38:40;8.10;;;2.47;;
75297;SDS011;63896;45.990;18.688;2023-07-08T13:41:44;4.32;;;2.60;;
75297;SDS011;63896;45.990;18.688;2023-07-08T13:44:48;5.85;;;2.65;;
75297;SDS011;63896;45.990;18.688;2023-07-08T13:51:29;7.03;;;2.80;;
75297;SDS011;63896;45.990;18.688;2023-07-08T13:54:37;4.47;;;2.67;;
75297;SDS011;63896;45.990;18.688;2023-07-08T13:57:43;6.68;;;2.70;;
75297;SDS011;63896;45.990;18.688;2023-07-08T14:00:46;5.35;;;2.75;;
75297;SDS011;63896;45.990;18.688;2023-07-08T14:03:49;3.50;;;2.78;;
75297;SDS011;63896;45.990;18.688;2023-07-08T14:06:52;3.40;;;2.77;;
75297;SDS011;63896;45.990;18.688;2023-07-08T14:09:55;7.40;;;3.03;;
75297;SDS011;63896;45.990;18.688;2023-07-08T14:12:58;8.43;;;2.70;;
75297;SDS011;63896;45.990;18.688;2023-07-08T14:16:01;6.13;;;2.60;;
75297;SDS011;63896;45.990;18.688;2023-07-08T14:19:07;5.70;;;2.67;;
75297;SDS011;63896;45.990;18.688;2023-07-08T14:22:26;10.30;;;2.87;;
75297;SDS011;63896;45.990;18.688;2023-07-08T14:25:30;6.38;;;2.47;;
75297;SDS011;63896;45.990;18.688;2023-07-08T14:28:33;6.63;;;2.60;;
75297;SDS011;63896;45.990;18.688;2023-07-08T14:31:36;4.40;;;2.40;;
75297;SDS011;63896;45.990;18.688;2023-07-08T14:34:39;4.65;;;2.85;;
75297;SDS011;63896;45.990;18.688;2023-07-08T14:37:43;4.27;;;2.83;;
75297;SDS011;63896;45.990;18.688;2023-07-08T14:40:47;4.38;;;2.70;;
75297;SDS011;63896;45.990;18.688;2023-07-08T14:43:50;5.03;;;2.58;;
75297;SDS011;63896;45.990;18.688;2023-07-08T14:46:52;5.47;;;2.55;;
75297;SDS011;63896;45.990;18.688;2023-07-08T14:49:56;3.45;;;2.63;;
75297;SDS011;63896;45.990;18.688;2023-07-08T14:52:59;5.07;;;2.80;;
75297;SDS011;63896;45.990;18.688;2023-07-08T14:56:12;6.82;;;2.75;;
75297;SDS011;63896;45.990;18.688;2023-07-08T14:59:18;5.88;;;2.72;;
75297;SDS011;63896;45.990;18.688;2023-07-08T15:02:24;4.68;;;2.50;;
75297;SDS011;63896;45.990;18.688;2023-07-08T15:05:27;4.05;;;2.85;;
75297;SDS011;63896;45.990;18.688;2023-07-08T15:08:31;7.67;;;2.60;;
75297;SDS011;63896;45.990;18.688;2023-07-08T15:11:37;3.90;;;2.67;;
75297;SDS011;63896;45.990;18.688;2023-07-08T15:14:41;6.13;;;2.70;;
75297;SDS011;63896;45.990;18.688;2023-07-08T15:17:44;7.90;;;2.85;;
75297;SDS011;63896;45.990;18.688;2023-07-08T15:20:50;5.47;;;2.65;;
75297;SDS011;63896;45.990;18.688;2023-07-08T15:23:53;3.57;;;2.70;;
75297;SDS011;63896;45.990;18.688;2023-07-08T15:26:56;4.95;;;2.78;;
75297;SDS011;63896;45.990;18.688;2023-07-08T15:29:59;5.97;;;2.95;;
75297;SDS011;63896;45.990;18.688;2023-07-08T15:33:02;6.30;;;3.08;;
75297;SDS011;63896;45.990;18.688;2023-07-08T15:36:06;5.28;;;2.83;;
75297;SDS011;63896;45.990;18.688;2023-07-08T15:39:10;5.37;;;2.90;;
75297;SDS011;63896;45.990;18.688;2023-07-08T15:42:13;5.82;;;2.97;;
75297;SDS011;63896;45.990;18.688;2023-07-08T15:48:24;6.57;;;2.60;;
75297;SDS011;63896;45.990;18.688;2023-07-08T15:51:27;10.88;;;2.78;;
75297;SDS011;63896;45.990;18.688;2023-07-08T15:54:31;4.60;;;2.77;;
75297;SDS011;63896;45.990;18.688;2023-07-08T15:57:36;5.43;;;2.92;;
75297;SDS011;63896;45.990;18.688;2023-07-08T16:00:47;4.20;;;2.80;;
75297;SDS011;63896;45.990;18.688;2023-07-08T16:03:50;3.50;;;2.70;;
75297;SDS011;63896;45.990;18.688;2023-07-08T16:06:53;8.85;;;2.72;;
75297;SDS011;63896;45.990;18.688;2023-07-08T16:09:56;6.63;;;2.80;;
75297;SDS011;63896;45.990;18.688;2023-07-08T16:12:59;5.72;;;2.75;;
75297;SDS011;63896;45.990;18.688;2023-07-08T16:16:05;5.95;;;3.47;;
75297;SDS011;63896;45.990;18.688;2023-07-08T16:19:09;3.85;;;2.65;;
75297;SDS011;63896;45.990;18.688;2023-07-08T16:22:13;4.45;;;2.78;;
75297;SDS011;63896;45.990;18.688;2023-07-08T16:25:18;11.13;;;3.10;;
75297;SDS011;63896;45.990;18.688;2023-07-08T16:31:42;7.53;;;2.58;;
75297;SDS011;63896;45.990;18.688;2023-07-08T16:34:46;7.00;;;2.90;;
75297;SDS011;63896;45.990;18.688;2023-07-08T16:37:50;9.40;;;3.00;;
75297;SDS011;63896;45.990;18.688;2023-07-08T16:40:56;5.50;;;2.90;;
75297;SDS011;63896;45.990;18.688;2023-07-08T16:44:00;11.65;;;3.10;;
75297;SDS011;63896;45.990;18.688;2023-07-08T16:47:03;3.50;;;2.55;;
75297;SDS011;63896;45.990;18.688;2023-07-08T16:50:06;4.60;;;2.95;;
75297;SDS011;63896;45.990;18.688;2023-07-08T16:53:11;4.90;;;2.80;;
75297;SDS011;63896;45.990;18.688;2023-07-08T16:56:17;6.10;;;2.50;;
75297;SDS011;63896;45.990;18.688;2023-07-08T16:59:21;5.00;;;3.00;;
75297;SDS011;63896;45.990;18.688;2023-07-08T17:02:24;5.82;;;2.72;;
75297;SDS011;63896;45.990;18.688;2023-07-08T17:05:32;8.20;;;2.97;;
75297;SDS011;63896;45.990;18.688;2023-07-08T17:08:37;3.42;;;2.45;;
75297;SDS011;63896;45.990;18.688;2023-07-08T17:11:40;4.50;;;2.83;;
75297;SDS011;63896;45.990;18.688;2023-07-08T17:14:43;4.88;;;2.58;;
75297;SDS011;63896;45.990;18.688;2023-07-08T17:17:50;7.53;;;2.95;;
75297;SDS011;63896;45.990;18.688;2023-07-08T17:20:59;8.65;;;3.17;;
75297;SDS011;63896;45.990;18.688;2023-07-08T17:24:03;3.10;;;2.70;;
75297;SDS011;63896;45.990;18.688;2023-07-08T17:27:06;7.40;;;2.43;;
75297;SDS011;63896;45.990;18.688;2023-07-08T17:30:10;9.43;;;2.78;;
75297;SDS011;63896;45.990;18.688;2023-07-08T17:33:17;6.20;;;2.75;;
75297;SDS011;63896;45.990;18.688;2023-07-08T17:36:23;8.57;;;2.88;;
75297;SDS011;63896;45.990;18.688;2023-07-08T17:39:30;4.88;;;3.00;;
75297;SDS011;63896;45.990;18.688;2023-07-08T17:42:33;5.50;;;2.90;;
75297;SDS011;63896;45.990;18.688;2023-07-08T17:45:40;5.10;;;2.33;;
75297;SDS011;63896;45.990;18.688;2023-07-08T17:48:46;5.72;;;2.53;;
75297;SDS011;63896;45.990;18.688;2023-07-08T17:51:50;3.28;;;2.50;;
75297;SDS011;63896;45.990;18.688;2023-07-08T17:54:55;4.18;;;2.67;;
75297;SDS011;63896;45.990;18.688;2023-07-08T17:57:58;6.37;;;2.80;;
75297;SDS011;63896;45.990;18.688;2023-07-08T18:01:01;6.03;;;3.00;;
75297;SDS011;63896;45.990;18.688;2023-07-08T18:04:10;8.75;;;2.75;;
75297;SDS011;63896;45.990;18.688;2023-07-08T18:07:13;6.00;;;3.25;;
75297;SDS011;63896;45.990;18.688;2023-07-08T18:10:16;9.48;;;3.30;;
75297;SDS011;63896;45.990;18.688;2023-07-08T18:13:20;7.70;;;4.07;;
75297;SDS011;63896;45.990;18.688;2023-07-08T18:16:26;5.65;;;3.15;;
75297;SDS011;63896;45.990;18.688;2023-07-08T18:19:31;6.85;;;3.35;;
75297;SDS011;63896;45.990;18.688;2023-07-08T18:22:34;9.57;;;3.13;;
75297;SDS011;63896;45.990;18.688;2023-07-08T18:25:37;5.50;;;3.10;;
75297;SDS011;63896;45.990;18.688;2023-07-08T18:28:40;7.43;;;3.60;;
75297;SDS011;63896;45.990;18.688;2023-07-08T18:31:43;5.13;;;3.08;;
75297;SDS011;63896;45.990;18.688;2023-07-08T18:34:46;6.82;;;3.50;;
75297;SDS011;63896;45.990;18.688;2023-07-08T18:37:49;6.90;;;3.63;;
75297;SDS011;63896;45.990;18.688;2023-07-08T18:40:53;8.02;;;3.60;;
75297;SDS011;63896;45.990;18.688;2023-07-08T18:43:57;6.07;;;3.13;;
75297;SDS011;63896;45.990;18.688;2023-07-08T18:47:00;9.13;;;3.03;;
75297;SDS011;63896;45.990;18.688;2023-07-08T18:50:06;6.68;;;2.92;;
75297;SDS011;63896;45.990;18.688;2023-07-08T18:53:13;9.55;;;2.90;;
75297;SDS011;63896;45.990;18.688;2023-07-08T18:56:18;4.80;;;3.22;;
75297;SDS011;63896;45.990;18.688;2023-07-08T18:59:21;9.03;;;3.50;;
75297;SDS011;63896;45.990;18.688;2023-07-08T19:06:19;8.35;;;3.17;;
75297;SDS011;63896;45.990;18.688;2023-07-08T19:09:24;13.20;;;3.53;;
75297;SDS011;63896;45.990;18.688;2023-07-08T19:12:27;7.22;;;3.72;;
75297;SDS011;63896;45.990;18.688;2023-07-08T19:15:30;8.03;;;5.10;;
75297;SDS011;63896;45.990;18.688;2023-07-08T19:18:34;12.27;;;4.93;;